createdAt,value
2019-04-25T00:01:21.334Z,9.52
2019-04-25T00:04:27.724Z,9.36
2019-04-25T00:07:34.516Z,9.21
2019-04-25T00:10:43.075Z,9.21
2019-04-25T00:13:51.596Z,9.12
2019-04-25T00:16:58.116Z,9.16
2019-04-25T00:20:06.619Z,9.17
2019-04-25T00:23:15.853Z,9.24
2019-04-25T00:26:28.738Z,9.27
2019-04-25T00:29:35.124Z,9.20
2019-04-25T00:32:42.958Z,9.11
2019-04-25T00:35:51.347Z,8.94
2019-04-25T00:38:58.338Z,9.04
2019-04-25T00:42:04.906Z,9.14
2019-04-25T00:45:11.923Z,9.05
2019-04-25T00:48:19.442Z,9.05
2019-04-25T00:51:25.874Z,9.17
2019-04-25T00:54:32.235Z,9.30
2019-04-25T00:57:39.890Z,9.06
2019-04-25T01:01:18.498Z,8.96
2019-04-25T01:04:25.529Z,8.97
2019-04-25T01:07:32.391Z,8.70
2019-04-25T01:10:41.609Z,8.83
2019-04-25T01:13:49.266Z,8.93
2019-04-25T01:16:56.127Z,8.83
2019-04-25T01:20:04.096Z,8.94
2019-04-25T01:23:10.767Z,8.62
2019-04-25T01:26:17.156Z,8.81
2019-04-25T01:29:23.758Z,8.28
2019-04-25T01:32:35.325Z,8.35
2019-04-25T01:36:13.382Z,8.53
2019-04-25T01:39:39.743Z,8.83
2019-04-25T01:43:07.912Z,8.34
2019-04-25T01:46:14.846Z,8.44
2019-04-25T01:49:21.736Z,8.29
2019-04-25T01:52:29.145Z,8.15
2019-04-25T01:55:35.808Z,8.36
2019-04-25T01:58:43.816Z,8.40
2019-04-25T02:01:51.047Z,8.27
2019-04-25T02:04:59.168Z,7.93
2019-04-25T02:08:06.974Z,8.00
2019-04-25T02:11:21.324Z,8.01
2019-04-25T02:14:29.078Z,8.31
2019-04-25T02:17:35.460Z,8.31
2019-04-25T02:20:43.498Z,8.27
2019-04-25T02:23:51.622Z,8.23
2019-04-25T02:26:58.812Z,8.19
2019-04-25T02:30:06.970Z,7.93
2019-04-25T02:33:14.383Z,7.98
2019-04-25T02:36:20.702Z,8.04
2019-04-25T02:39:28.078Z,8.04
2019-04-25T02:42:34.481Z,7.80
2019-04-25T02:46:01.772Z,8.01
2019-04-25T02:49:39.911Z,7.83
2019-04-25T02:52:51.400Z,8.04
2019-04-25T02:55:57.839Z,7.97
2019-04-25T02:59:06.993Z,7.90
2019-04-25T03:02:12.453Z,7.84
2019-04-25T03:05:19.144Z,8.03
2019-04-25T03:08:25.604Z,7.99
2019-04-25T03:11:34.703Z,7.96
2019-04-25T03:14:41.074Z,7.79
2019-04-25T03:17:47.541Z,7.75
2019-04-25T03:21:05.184Z,7.56
2019-04-25T03:24:13.097Z,7.52
2019-04-25T03:27:18.332Z,7.92
2019-04-25T03:30:25.694Z,8.04
2019-04-25T03:33:32.032Z,7.94
2019-04-25T03:36:38.412Z,7.58
2019-04-25T03:39:44.774Z,7.58
2019-04-25T03:42:51.278Z,7.88
2019-04-25T03:45:57.733Z,7.66
2019-04-25T03:49:05.307Z,7.62
2019-04-25T03:52:14.169Z,7.65
2019-04-25T03:55:20.952Z,7.61
2019-04-25T03:58:27.309Z,7.92
2019-04-25T04:01:34.284Z,7.74
2019-04-25T04:04:40.756Z,7.69
2019-04-25T04:07:47.124Z,7.66
2019-04-25T04:10:54.369Z,7.74
2019-04-25T04:14:03.917Z,7.98
2019-04-25T04:17:36.005Z,8.08
2019-04-25T04:20:53.481Z,7.87
2019-04-25T04:24:09.668Z,7.86
2019-04-25T04:27:18.409Z,7.84
2019-04-25T04:30:24.778Z,7.79
2019-04-25T04:33:34.353Z,7.81
2019-04-25T04:36:39.886Z,7.94
2019-04-25T04:39:46.277Z,7.96
2019-04-25T04:42:53.332Z,8.05
2019-04-25T04:45:59.969Z,8.08
2019-04-25T04:49:08.785Z,8.18
2019-04-25T04:52:17.032Z,8.20
2019-04-25T04:55:23.687Z,8.40
2019-04-25T04:58:30.156Z,8.43
2019-04-25T05:01:38.962Z,8.39
2019-04-25T05:05:08.519Z,8.58
2019-04-25T05:08:19.986Z,8.73
2019-04-25T05:11:26.407Z,8.85
2019-04-25T05:14:39.157Z,8.90
2019-04-25T05:17:48.246Z,8.98
2019-04-25T05:21:13.257Z,9.08
2019-04-25T05:24:24.999Z,9.15
2019-04-25T05:27:57.676Z,9.22
2019-04-25T05:31:16.804Z,9.33
2019-04-25T05:34:41.691Z,9.42
2019-04-25T05:37:59.595Z,9.59
2019-04-25T05:41:15.804Z,9.71
2019-04-25T05:44:27.350Z,9.76
2019-04-25T05:47:34.057Z,9.89
2019-04-25T05:50:40.373Z,9.96
2019-04-25T05:53:47.642Z,10.02
2019-04-25T05:56:54.031Z,10.20
2019-04-25T06:00:00.470Z,10.24
2019-04-25T06:03:07.250Z,10.40
2019-04-25T06:06:13.733Z,10.51
2019-04-25T06:09:45.522Z,10.64
2019-04-25T06:13:13.976Z,10.81
2019-04-25T06:16:29.564Z,10.85
2019-04-25T06:19:43.557Z,10.94
2019-04-25T06:22:56.748Z,11.08
2019-04-25T06:26:17.144Z,11.23
2019-04-25T06:29:11.356Z,11.31
2019-04-25T06:32:17.683Z,11.47
2019-04-25T06:35:25.142Z,11.59
2019-04-25T06:38:33.462Z,11.65
2019-04-25T06:41:40.094Z,11.89
2019-04-25T06:45:05.431Z,11.96
2019-04-25T06:48:35.207Z,12.07
2019-04-25T06:51:54.785Z,12.26
2019-04-25T06:55:01.156Z,12.53
2019-04-25T06:58:11.690Z,12.61
2019-04-25T07:01:15.697Z,12.83
2019-04-25T07:04:22.776Z,12.92
2019-04-25T07:07:31.080Z,13.04
2019-04-25T07:10:37.622Z,13.12
2019-04-25T07:13:44.228Z,13.28
2019-04-25T07:16:52.849Z,13.46
2019-04-25T07:20:00.773Z,13.44
2019-04-25T07:23:07.161Z,13.51
2019-04-25T07:26:21.375Z,13.56
2019-04-25T07:29:53.941Z,13.67
2019-04-25T07:33:27.284Z,13.76
2019-04-25T07:36:34.785Z,13.79
2019-04-25T07:39:41.785Z,14.10
2019-04-25T07:42:48.073Z,14.20
2019-04-25T07:45:54.519Z,14.38
2019-04-25T07:49:00.888Z,14.47
2019-04-25T07:52:07.321Z,14.76
2019-04-25T07:55:13.863Z,15.14
2019-04-25T07:58:20.432Z,15.27
2019-04-25T08:01:27.998Z,15.57
2019-04-25T08:04:36.170Z,15.50
2019-04-25T08:07:43.761Z,15.75
2019-04-25T08:10:59.134Z,16.19
2019-04-25T08:14:11.561Z,16.33
2019-04-25T08:17:39.615Z,16.44
2019-04-25T08:20:47.152Z,16.55
2019-04-25T08:23:53.975Z,16.75
2019-04-25T08:27:00.702Z,16.99
2019-04-25T08:30:08.049Z,17.41
2019-04-25T08:33:14.498Z,17.04
2019-04-25T08:36:21.112Z,17.38
2019-04-25T08:39:27.626Z,17.65
2019-04-25T08:42:35.825Z,17.67
2019-04-25T08:45:44.131Z,17.83
2019-04-25T08:49:21.811Z,18.14
2019-04-25T08:52:28.274Z,18.15
2019-04-25T08:55:54.046Z,18.07
2019-04-25T08:59:34.039Z,18.47
2019-04-25T09:02:58.884Z,18.47
2019-04-25T09:06:05.917Z,18.56
2019-04-25T09:09:13.687Z,19.24
2019-04-25T09:12:20.240Z,18.47
2019-04-25T09:15:27.026Z,18.43
2019-04-25T09:18:36.051Z,18.65
2019-04-25T09:21:48.033Z,19.23
2019-04-25T09:24:51.157Z,19.46
2019-04-25T09:27:57.703Z,19.41
2019-04-25T09:31:04.291Z,19.19
2019-04-25T09:34:10.868Z,19.79
2019-04-25T09:37:17.249Z,20.03
2019-04-25T09:40:24.098Z,20.08
2019-04-25T09:43:30.748Z,20.65
2019-04-25T09:46:37.799Z,19.88
2019-04-25T09:49:46.302Z,20.49
2019-04-25T09:52:53.927Z,20.75
2019-04-25T09:56:14.068Z,20.11
2019-04-25T09:59:27.962Z,19.88
2019-04-25T10:02:30.969Z,20.78
2019-04-25T10:05:38.428Z,20.78
2019-04-25T10:08:45.414Z,20.38
2019-04-25T10:11:54.504Z,19.83
2019-04-25T10:15:31.307Z,19.51
2019-04-25T10:18:39.205Z,20.81
2019-04-25T10:21:45.722Z,20.70
2019-04-25T10:25:00.435Z,20.77
2019-04-25T10:28:00.382Z,21.36
2019-04-25T10:31:07.192Z,21.53
2019-04-25T10:34:14.132Z,21.86
2019-04-25T10:37:20.889Z,21.63
2019-04-25T10:40:27.952Z,21.39
2019-04-25T10:43:34.613Z,21.23
2019-04-25T10:46:42.168Z,21.16
2019-04-25T10:49:49.498Z,21.87
2019-04-25T10:52:55.916Z,20.89
2019-04-25T10:56:05.509Z,20.28
2019-04-25T10:59:10.671Z,19.73
2019-04-25T11:02:17.315Z,18.58
2019-04-25T11:05:24.014Z,17.83
2019-04-25T11:08:30.705Z,18.19
2019-04-25T11:11:37.304Z,16.95
2019-04-25T11:14:44.324Z,16.77
2019-04-25T11:17:51.148Z,17.01
2019-04-25T11:20:59.231Z,17.07
2019-04-25T11:24:05.871Z,16.69
2019-04-25T11:27:13.517Z,16.34
2019-04-25T11:30:22.747Z,16.38
2019-04-25T11:33:29.294Z,15.70
2019-04-25T11:36:35.841Z,15.92
2019-04-25T11:39:49.285Z,15.92
2019-04-25T11:42:55.922Z,15.27
2019-04-25T11:46:04.581Z,14.88
2019-04-25T11:49:10.705Z,14.72
2019-04-25T11:52:27.324Z,14.48
2019-04-25T11:55:25.968Z,14.41
2019-04-25T11:58:32.456Z,14.36
2019-04-25T12:01:39.661Z,14.46
2019-04-25T12:04:47.692Z,14.05
2019-04-25T12:07:54.182Z,14.14
2019-04-25T12:11:00.692Z,14.32
2019-04-25T12:14:07.370Z,14.37
2019-04-25T12:17:13.745Z,14.60
2019-04-25T12:20:20.185Z,14.60
2019-04-25T12:23:27.034Z,14.52
2019-04-25T12:26:34.449Z,14.67
2019-04-25T12:29:40.815Z,14.70
2019-04-25T12:32:47.927Z,14.33
2019-04-25T12:35:55.376Z,14.35
2019-04-25T12:39:03.376Z,14.26
2019-04-25T12:42:11.678Z,14.16
2019-04-25T12:45:25.268Z,14.16
2019-04-25T12:48:31.891Z,13.97
2019-04-25T12:51:38.363Z,13.87
2019-04-25T12:54:44.687Z,13.93
2019-04-25T12:57:51.515Z,13.82
2019-04-25T13:01:00.095Z,14.00
2019-04-25T13:04:07.072Z,14.21
2019-04-25T13:07:13.767Z,14.14
2019-04-25T13:10:21.210Z,14.17
2019-04-25T13:13:27.741Z,14.13
2019-04-25T13:16:34.306Z,13.97
2019-04-25T13:19:41.107Z,14.19
2019-04-25T13:22:47.494Z,14.16
2019-04-25T13:25:55.836Z,14.19
2019-04-25T13:29:23.049Z,14.16
2019-04-25T13:33:00.377Z,14.28
2019-04-25T13:36:12.257Z,14.41
2019-04-25T13:39:20.003Z,14.38
2019-04-25T13:42:26.378Z,14.21
2019-04-25T13:45:32.770Z,14.01
2019-04-25T13:48:40.242Z,13.79
2019-04-25T13:51:46.766Z,14.16
2019-04-25T13:54:54.236Z,14.42
2019-04-25T13:58:00.676Z,14.54
2019-04-25T14:01:13.103Z,14.59
2019-04-25T14:04:18.791Z,14.49
2019-04-25T14:07:25.544Z,14.53
2019-04-25T14:10:32.783Z,14.54
2019-04-25T14:13:43.588Z,14.71
2019-04-25T14:17:07.022Z,14.82
2019-04-25T14:20:18.998Z,14.91
2019-04-25T14:23:25.768Z,14.93
2019-04-25T14:26:33.171Z,14.82
2019-04-25T14:29:39.531Z,14.21
2019-04-25T14:32:45.964Z,14.53
2019-04-25T14:35:53.477Z,14.29
2019-04-25T14:39:01.312Z,14.18
2019-04-25T14:42:09.531Z,13.89
2019-04-25T14:45:17.884Z,13.85
2019-04-25T14:48:24.794Z,13.89
2019-04-25T14:51:31.102Z,13.71
2019-04-25T14:54:44.602Z,13.22
2019-04-25T14:57:51.162Z,13.22
2019-04-25T15:00:57.719Z,13.08
2019-04-25T15:04:04.563Z,12.92
2019-04-25T15:07:11.490Z,12.86
2019-04-25T15:10:18.631Z,12.74
2019-04-25T15:13:25.780Z,12.80
2019-04-25T15:16:33.425Z,12.65
2019-04-25T15:19:40.042Z,13.02
2019-04-25T15:22:46.375Z,13.17
2019-04-25T15:25:52.788Z,12.95
2019-04-25T15:28:59.690Z,13.13
2019-04-25T15:32:07.765Z,13.18
2019-04-25T15:35:15.962Z,13.24
2019-04-25T15:38:29.039Z,13.18
2019-04-25T15:41:54.672Z,13.10
2019-04-25T15:45:19.903Z,13.20
2019-04-25T15:48:26.455Z,12.99
2019-04-25T15:51:33.093Z,12.86
2019-04-25T15:54:39.573Z,13.16
2019-04-25T15:57:45.912Z,12.94
2019-04-25T16:00:52.380Z,12.82
2019-04-25T16:03:58.817Z,12.94
2019-04-25T16:07:05.522Z,13.14
2019-04-25T16:10:12.295Z,13.20
2019-04-25T16:13:19.463Z,13.27
2019-04-25T16:16:26.799Z,13.30
2019-04-25T16:19:33.268Z,13.27
2019-04-25T16:22:39.747Z,13.12
2019-04-25T16:25:46.227Z,12.98
2019-04-25T16:28:52.742Z,12.98
2019-04-25T16:32:00.561Z,13.13
2019-04-25T16:35:07.257Z,13.22
2019-04-25T16:38:13.970Z,13.17
2019-04-25T16:41:21.068Z,13.22
2019-04-25T16:44:28.678Z,13.26
2019-04-25T16:47:35.950Z,13.24
2019-04-25T16:50:42.343Z,13.26
2019-04-25T16:53:48.728Z,13.26
2019-04-25T16:56:55.110Z,13.29
2019-04-25T17:00:01.665Z,13.25
2019-04-25T17:03:09.780Z,13.24
2019-04-25T17:06:16.195Z,13.20
2019-04-25T17:09:22.513Z,13.19
2019-04-25T17:12:29.675Z,13.02
2019-04-25T17:16:02.307Z,13.25
2019-04-25T17:19:12.223Z,13.24
2019-04-25T17:22:18.863Z,13.20
2019-04-25T17:25:25.413Z,13.23
2019-04-25T17:28:33.438Z,13.15
2019-04-25T17:31:58.903Z,13.24
2019-04-25T17:35:18.315Z,13.06
2019-04-25T17:38:33.585Z,13.10
2019-04-25T17:41:41.251Z,13.16
2019-04-25T17:44:47.955Z,13.20
2019-04-25T17:47:55.070Z,13.13
2019-04-25T17:51:01.798Z,13.13
2019-04-25T17:54:09.237Z,13.15
2019-04-25T17:57:15.680Z,13.20
2019-04-25T18:00:39.702Z,13.18
2019-04-25T18:03:47.118Z,13.14
2019-04-25T18:06:54.412Z,13.14
2019-04-25T18:10:00.824Z,13.12
2019-04-25T18:13:09.573Z,13.16
2019-04-25T18:16:31.213Z,13.10
2019-04-25T18:19:55.306Z,13.06
2019-04-25T18:23:09.766Z,12.97
2019-04-25T18:26:28.215Z,12.98
2019-04-25T18:29:35.076Z,12.83
2019-04-25T18:32:50.125Z,12.77
2019-04-25T18:36:03.909Z,12.75
2019-04-25T18:39:21.222Z,12.70
2019-04-25T18:42:52.830Z,12.58
2019-04-25T18:46:04.088Z,12.55
2019-04-25T18:49:10.715Z,12.65
2019-04-25T18:52:42.920Z,12.58
2019-04-25T18:56:11.439Z,12.51
2019-04-25T18:59:38.687Z,12.32
2019-04-25T19:03:07.153Z,12.32
2019-04-25T19:06:15.763Z,12.16
2019-04-25T19:09:22.302Z,12.28
2019-04-25T19:12:28.699Z,12.27
2019-04-25T19:15:35.109Z,12.27
2019-04-25T19:18:44.418Z,12.10
2019-04-25T19:21:50.057Z,12.20
2019-04-25T19:24:56.853Z,12.20
2019-04-25T19:28:03.278Z,12.18
2019-04-25T19:31:10.983Z,12.06
2019-04-25T19:34:17.514Z,12.06
2019-04-25T19:37:25.425Z,11.98
2019-04-25T19:40:49.799Z,11.92
2019-04-25T19:44:05.527Z,11.93
2019-04-25T19:47:11.937Z,11.97
2019-04-25T19:50:18.343Z,11.98
2019-04-25T19:53:24.750Z,11.90
2019-04-25T19:56:32.970Z,12.02
2019-04-25T19:59:39.595Z,11.81
2019-04-25T20:02:54.331Z,11.93
2019-04-25T20:06:07.069Z,11.90
2019-04-25T20:09:31.875Z,11.86
2019-04-25T20:12:45.302Z,11.86
2019-04-25T20:15:52.124Z,11.85
2019-04-25T20:18:58.502Z,11.83
2019-04-25T20:22:05.033Z,11.82
2019-04-25T20:25:11.511Z,11.85
2019-04-25T20:28:17.873Z,11.80
2019-04-25T20:31:24.252Z,11.73
2019-04-25T20:34:30.716Z,11.76
2019-04-25T20:37:38.120Z,11.77
2019-04-25T20:40:45.350Z,11.73
2019-04-25T20:43:52.950Z,11.61
2019-04-25T20:46:59.370Z,11.59
2019-04-25T20:50:07.114Z,11.38
2019-04-25T20:53:13.461Z,11.38
2019-04-25T20:56:20.837Z,11.25
2019-04-25T20:59:27.511Z,11.24
2019-04-25T21:02:33.934Z,11.23
2019-04-25T21:05:41.011Z,11.05
2019-04-25T21:08:47.403Z,11.05
2019-04-25T21:11:53.893Z,10.79
2019-04-25T21:15:19.318Z,10.91
2019-04-25T21:18:35.829Z,10.75
2019-04-25T21:21:42.384Z,10.80
2019-04-25T21:24:49.491Z,10.83
2019-04-25T21:27:56.944Z,10.96
2019-04-25T21:31:04.227Z,10.89
2019-04-25T21:34:10.816Z,10.78
2019-04-25T21:37:17.676Z,10.76
2019-04-25T21:40:43.822Z,10.90
2019-04-25T21:43:54.392Z,10.88
2019-04-25T21:47:01.029Z,10.80
2019-04-25T21:50:08.062Z,10.70
2019-04-25T21:53:14.705Z,10.78
2019-04-25T21:56:21.268Z,10.54
2019-04-25T21:59:27.669Z,10.56
2019-04-25T22:02:34.224Z,10.54
2019-04-25T22:05:41.030Z,10.57
2019-04-25T22:08:47.387Z,10.53
2019-04-25T22:11:54.761Z,10.55
2019-04-25T22:15:02.056Z,10.51
2019-04-25T22:18:08.450Z,10.57
2019-04-25T22:21:14.806Z,10.56
2019-04-25T22:24:22.138Z,10.55
2019-04-25T22:27:33.472Z,10.59
2019-04-25T22:30:40.974Z,10.45
2019-04-25T22:34:03.785Z,10.37
2019-04-25T22:37:10.807Z,10.44
2019-04-25T22:40:17.703Z,10.42
2019-04-25T22:43:25.333Z,10.40
2019-04-25T22:46:32.909Z,10.44
2019-04-25T22:49:39.681Z,10.43
2019-04-25T22:52:46.312Z,10.49
2019-04-25T22:55:52.679Z,10.36
2019-04-25T22:58:59.060Z,10.36
2019-04-25T23:02:13.931Z,10.46
2019-04-25T23:05:27.539Z,10.47
2019-04-25T23:08:34.068Z,10.44
2019-04-25T23:11:40.481Z,10.46
2019-04-25T23:14:47.161Z,10.50
2019-04-25T23:17:53.773Z,10.52
2019-04-25T23:21:00.185Z,10.55
2019-04-25T23:24:07.863Z,10.51
2019-04-25T23:27:30.635Z,10.45
2019-04-25T23:30:50.170Z,10.50
2019-04-25T23:33:56.475Z,10.41
2019-04-25T23:37:03.082Z,10.38
2019-04-25T23:40:11.578Z,10.31
2019-04-25T23:43:18.042Z,10.42
2019-04-25T23:46:24.896Z,10.42
2019-04-25T23:49:31.200Z,10.40
2019-04-25T23:52:37.864Z,10.39
2019-04-25T23:55:44.328Z,10.24
2019-04-25T23:58:51.024Z,10.27
